Time;durP1;ratioP1;P1;durP2;ratioP2;P2;SDS_P1;SDS_P2;PMS_P1;PMS_P2;Temp;Humidity;BMP_temperature;BMP_pressure;BME280_temperature;BME280_humidity;BME280_pressure;Samples;Min_cycle;Max_cycle;Signal;HPM_P1;HPM_P2
2021/12/12 00:02:20;;;;;;;23.73;10.98;;;;;;;7.07;100.00;101822.63;5126213;27;20019;-71
2021/12/12 00:04:48;;;;;;;26.50;10.50;;;;;;;6.95;100.00;101808.13;5108260;27;20035;-70
2021/12/12 00:07:21;;;;;;;23.23;11.73;;;;;;;6.99;100.00;101809.31;5127725;27;20035;-70
2021/12/12 00:09:51;;;;;;;27.30;11.65;;;;;;;7.03;100.00;101806.94;5105340;27;20500;-70
2021/12/12 00:12:24;;;;;;;28.92;11.65;;;;;;;7.01;100.00;101803.63;5127859;27;20061;-70
2021/12/12 00:14:51;;;;;;;24.25;11.40;;;;;;;6.95;100.00;101799.94;5143957;27;20026;-71
2021/12/12 00:17:19;;;;;;;27.15;11.25;;;;;;;6.97;100.00;101787.75;5127871;27;20019;-71
2021/12/12 00:19:45;;;;;;;31.33;12.32;;;;;;;6.89;100.00;101779.91;5110344;27;20022;-71
2021/12/12 00:22:15;;;;;;;28.50;12.18;;;;;;;7.04;100.00;101789.53;5129514;27;20046;-71
2021/12/12 00:24:43;;;;;;;26.77;11.85;;;;;;;6.92;100.00;101781.31;5143356;27;20217;-71
2021/12/12 00:27:09;;;;;;;32.58;12.10;;;;;;;6.98;100.00;101769.47;5126887;27;20106;-71
2021/12/12 00:29:35;;;;;;;31.73;13.02;;;;;;;7.11;100.00;101784.78;5143718;27;20455;-71
2021/12/12 00:32:14;;;;;;;28.55;11.75;;;;;;;7.05;100.00;101785.72;5127796;27;20027;-71
2021/12/12 00:34:50;;;;;;;26.80;12.15;;;;;;;6.81;100.00;101777.53;5127973;27;20026;-71
2021/12/12 00:37:17;;;;;;;24.77;11.57;;;;;;;6.92;100.00;101782.16;5128505;27;20533;-71
2021/12/12 00:39:50;;;;;;;28.75;12.65;;;;;;;6.81;100.00;101778.34;5125845;27;20090;-70
2021/12/12 00:42:19;;;;;;;24.95;11.27;;;;;;;7.06;100.00;101776.50;5147214;27;20041;-70
2021/12/12 00:44:49;;;;;;;21.92;10.95;;;;;;;7.01;100.00;101774.47;5143329;27;20041;-70
2021/12/12 00:47:15;;;;;;;21.52;11.30;;;;;;;7.06;100.00;101769.13;5147081;27;20022;-71
2021/12/12 00:49:42;;;;;;;23.90;11.02;;;;;;;7.12;100.00;101770.09;5111495;27;20054;-71
2021/12/12 00:52:11;;;;;;;23.35;10.75;;;;;;;7.11;100.00;101769.25;5129329;27;20075;-70
2021/12/12 00:54:39;;;;;;;20.75;11.20;;;;;;;7.09;100.00;101771.38;5108942;27;20122;-71
2021/12/12 00:57:08;;;;;;;28.80;11.10;;;;;;;7.12;100.00;101768.19;5090931;27;20092;-71
2021/12/12 00:59:35;;;;;;;23.65;11.30;;;;;;;7.02;100.00;101767.97;5122788;27;20030;-71
2021/12/12 01:02:04;;;;;;;23.80;11.38;;;;;;;6.73;100.00;101756.06;5138492;27;20037;-72
2021/12/12 01:04:40;;;;;;;25.05;11.57;;;;;;;7.15;100.00;101756.00;5127151;27;20038;-72
2021/12/12 01:07:11;;;;;;;19.38;10.13;;;;;;;6.85;100.00;101746.00;5147742;27;20477;-71
2021/12/12 01:09:43;;;;;;;17.48;10.38;;;;;;;6.98;100.00;101743.06;5125258;27;20109;-70
2021/12/12 01:12:15;;;;;;;19.50;10.02;;;;;;;7.08;100.00;101752.53;5147574;27;20329;-70
2021/12/12 01:14:44;;;;;;;19.38;9.65;;;;;;;7.01;100.00;101736.28;5123425;27;20101;-72
2021/12/12 01:17:16;;;;;;;19.38;10.73;;;;;;;7.05;100.00;101756.59;5146346;27;20038;-69
2021/12/12 01:19:57;;;;;;;19.35;9.75;;;;;;;7.09;100.00;101754.22;5145758;27;20029;-70
2021/12/12 01:22:32;;;;;;;18.58;9.95;;;;;;;7.03;100.00;101760.59;5147849;27;20026;-70
2021/12/12 01:25:10;;;;;;;21.13;10.60;;;;;;;6.99;100.00;101766.53;5126638;27;20023;-70
2021/12/12 01:27:36;;;;;;;19.42;10.20;;;;;;;6.84;100.00;101760.69;5145701;27;20057;-71
2021/12/12 01:30:02;;;;;;;19.83;10.18;;;;;;;7.01;100.00;101763.56;5125232;27;20074;-70
2021/12/12 01:32:31;;;;;;;28.50;11.82;;;;;;;7.12;100.00;101751.84;5118775;27;20035;-71
2021/12/12 01:34:58;;;;;;;21.00;11.38;;;;;;;7.07;100.00;101759.91;5113795;27;20122;-71
2021/12/12 01:40:00;;;;;;;15.65;9.98;;;;;;;6.81;100.00;101753.81;5144366;27;20079;-71
2021/12/12 01:42:58;;;;;;;18.17;10.57;;;;;;;6.98;100.00;101750.41;5126997;27;20075;-69
2021/12/12 01:45:39;;;;;;;19.05;10.85;;;;;;;7.04;100.00;101748.63;5104325;27;20038;-71
2021/12/12 01:48:15;;;;;;;20.88;10.90;;;;;;;6.98;100.00;101740.34;5146899;27;20018;-72
2021/12/12 01:50:45;;;;;;;22.17;11.15;;;;;;;7.09;100.00;101737.84;5143444;27;20057;-72
2021/12/12 01:53:15;;;;;;;24.60;11.23;;;;;;;7.02;100.00;101737.97;5128267;27;20027;-72
2021/12/12 01:55:49;;;;;;;17.10;10.68;;;;;;;6.91;100.00;101733.34;5141758;27;20485;-70
2021/12/12 01:58:19;;;;;;;14.98;10.00;;;;;;;6.99;100.00;101739.25;5127791;27;20121;-71
2021/12/12 02:00:50;;;;;;;21.35;9.85;;;;;;;6.98;100.00;101742.22;5098828;27;20528;-71
2021/12/12 02:03:20;;;;;;;17.00;10.30;;;;;;;7.14;100.00;101757.06;5107407;27;20027;-72
2021/12/12 02:05:47;;;;;;;16.85;10.48;;;;;;;6.93;100.00;101744.81;5122377;27;20027;-70
2021/12/12 02:08:16;;;;;;;13.18;9.82;;;;;;;6.86;100.00;101755.84;5088910;27;20062;-71
2021/12/12 02:10:50;;;;;;;14.45;9.55;;;;;;;6.76;100.00;101739.25;5122122;27;20488;-71
2021/12/12 02:13:18;;;;;;;15.02;10.27;;;;;;;6.96;100.00;101745.19;5106741;27;20015;-71
2021/12/12 02:15:46;;;;;;;18.08;10.80;;;;;;;6.83;100.00;101739.94;5100780;27;20023;-71
2021/12/12 02:18:19;;;;;;;16.25;11.30;;;;;;;6.78;100.00;101753.47;5125402;27;20029;-71
2021/12/12 02:21:07;;;;;;;17.42;11.77;;;;;;;6.94;100.00;101741.03;5103820;27;20833;-71
2021/12/12 02:23:59;;;;;;;17.58;11.70;;;;;;;7.00;100.00;101745.53;5104851;27;20127;-71
2021/12/12 02:37:24;;;;;;;21.88;13.18;;;;;;;7.05;100.00;101726.59;5145656;27;20041;-71
2021/12/12 02:39:50;;;;;;;21.77;14.23;;;;;;;7.18;100.00;101736.41;5107087;27;20492;-70
2021/12/12 02:42:20;;;;;;;23.13;13.95;;;;;;;6.96;100.00;101737.00;5110138;27;20163;-71
2021/12/12 02:44:46;;;;;;;24.05;14.07;;;;;;;7.08;100.00;101726.09;5090448;27;20039;-72
2021/12/12 02:47:17;;;;;;;23.60;13.65;;;;;;;7.17;100.00;101724.69;5144734;27;20045;-71
2021/12/12 02:52:23;;;;;;;20.15;13.57;;;;;;;6.84;100.00;101738.91;5145768;27;20364;-70
2021/12/12 02:54:49;;;;;;;21.60;14.20;;;;;;;7.11;100.00;101736.53;5123870;27;20079;-70
2021/12/12 02:57:16;;;;;;;18.40;13.80;;;;;;;7.28;100.00;101725.75;5145700;27;20521;-70
2021/12/12 02:59:45;;;;;;;23.25;14.80;;;;;;;6.90;100.00;101720.75;5143279;27;20179;-71
2021/12/12 03:02:15;;;;;;;23.38;14.60;;;;;;;6.97;100.00;101729.66;5129658;27;20182;-71
2021/12/12 03:04:42;;;;;;;24.63;14.30;;;;;;;7.33;100.00;101728.59;5129204;27;20052;-72
2021/12/12 03:07:09;;;;;;;25.55;14.88;;;;;;;6.91;100.00;101725.16;5148583;27;20038;-72
2021/12/12 03:09:40;;;;;;;25.27;14.95;;;;;;;6.99;100.00;101725.63;5149323;27;20034;-71
2021/12/12 03:12:13;;;;;;;25.17;15.10;;;;;;;7.13;100.00;101723.50;5130788;27;20022;-71
2021/12/12 03:14:40;;;;;;;24.77;14.68;;;;;;;7.13;100.00;101719.94;5145459;27;20019;-70
2021/12/12 03:17:10;;;;;;;27.00;15.98;;;;;;;7.28;100.00;101714.84;5146048;27;20409;-70
2021/12/12 03:19:36;;;;;;;22.38;15.77;;;;;;;7.61;100.00;101704.31;5147800;27;20037;-70
2021/12/12 03:22:05;;;;;;;30.52;16.02;;;;;;;7.52;100.00;101701.16;5130735;27;20171;-71
2021/12/12 03:24:30;;;;;;;25.13;16.10;;;;;;;7.38;100.00;101700.59;5148339;27;20041;-70
2021/12/12 03:27:02;;;;;;;26.80;15.30;;;;;;;7.46;100.00;101707.56;5127371;27;20030;-70
2021/12/12 03:29:29;;;;;;;25.07;15.73;;;;;;;7.31;100.00;101708.91;5147104;27;20193;-70
2021/12/12 03:32:00;;;;;;;23.63;15.10;;;;;;;7.48;100.00;101719.91;5141150;27;20462;-70
2021/12/12 03:34:30;;;;;;;28.52;16.02;;;;;;;7.45;100.00;101725.84;5142251;27;20110;-70
2021/12/12 03:36:57;;;;;;;28.75;15.77;;;;;;;7.40;100.00;101735.81;5145277;27;20462;-71
2021/12/12 03:39:30;;;;;;;25.73;16.67;;;;;;;7.46;100.00;101735.69;5148673;27;20030;-70
2021/12/12 03:41:59;;;;;;;27.77;16.83;;;;;;;7.55;100.00;101730.69;5127538;27;20026;-71
2021/12/12 03:44:29;;;;;;;28.25;16.42;;;;;;;7.46;100.00;101726.66;5146944;27;20031;-70
2021/12/12 03:47:03;;;;;;;26.17;16.17;;;;;;;7.62;100.00;101728.66;5123906;27;20101;-71
2021/12/12 03:49:30;;;;;;;27.55;17.75;;;;;;;7.50;100.00;101736.03;5148482;27;20156;-71
2021/12/12 03:51:57;;;;;;;27.20;17.27;;;;;;;7.70;100.00;101733.72;5127630;27;20030;-71
2021/12/12 03:54:22;;;;;;;31.52;17.85;;;;;;;7.83;100.00;101724.44;5148118;27;20132;-71
2021/12/12 03:56:49;;;;;;;24.10;17.08;;;;;;;7.71;100.00;101720.94;5124849;27;20090;-71
2021/12/12 03:59:15;;;;;;;28.65;18.58;;;;;;;7.88;100.00;101723.72;5128095;27;20625;-70
2021/12/12 04:01:48;;;;;;;28.00;17.25;;;;;;;7.67;100.00;101726.06;5103158;27;20031;-70
2021/12/12 04:04:17;;;;;;;25.58;17.92;;;;;;;7.88;100.00;101721.00;5127231;27;20138;-71
2021/12/12 04:06:43;;;;;;;29.45;19.63;;;;;;;7.84;100.00;101720.66;5126022;27;20047;-71
2021/12/12 04:09:13;;;;;;;34.38;19.77;;;;;;;7.73;100.00;101718.78;5110633;27;20027;-71
2021/12/12 04:11:42;;;;;;;33.13;20.27;;;;;;;7.84;100.00;101711.66;5125095;27;20034;-70
2021/12/12 04:14:10;;;;;;;31.38;20.55;;;;;;;7.84;100.00;101711.66;5109653;27;20034;-70
2021/12/12 04:16:39;;;;;;;36.17;20.63;;;;;;;7.82;100.00;101716.50;5122615;27;20027;-70
2021/12/12 04:19:06;;;;;;;31.85;20.85;;;;;;;7.82;100.00;101711.03;5109263;27;20473;-71
2021/12/12 04:21:34;;;;;;;30.05;21.55;;;;;;;7.72;100.00;101725.31;5125853;27;20038;-71
2021/12/12 04:24:00;;;;;;;32.70;21.45;;;;;;;7.91;100.00;101724.06;5144879;27;20066;-71
2021/12/12 04:26:30;;;;;;;37.25;22.00;;;;;;;7.88;100.00;101723.72;5109967;27;20076;-71
2021/12/12 04:29:09;;;;;;;36.95;22.92;;;;;;;7.73;100.00;101721.50;5147867;27;20022;-70
2021/12/12 04:31:40;;;;;;;40.03;22.75;;;;;;;7.77;100.00;101733.59;5142771;27;20018;-71
2021/12/12 04:34:07;;;;;;;36.67;23.50;;;;;;;7.94;100.00;101732.88;5127679;27;20022;-71
2021/12/12 04:36:39;;;;;;;39.70;23.17;;;;;;;7.76;100.00;101723.75;5116211;27;20045;-71
2021/12/12 04:39:10;;;;;;;;;;;;;;;7.90;100.00;101727.03;5130004;27;20038;-71
2021/12/12 04:41:37;;;;;;;36.78;23.10;;;;;;;7.84;100.00;101728.84;5146217;27;20387;-71
2021/12/12 04:44:03;;;;;;;39.00;24.00;;;;;;;8.13;100.00;101733.50;5146206;27;20287;-70
2021/12/12 04:49:54;;;;;;;42.80;23.65;;;;;;;8.11;100.00;101733.72;5124335;27;20033;-71
2021/12/12 04:52:09;;;;;;;43.25;26.00;;;;;;;7.98;100.00;101734.03;5147543;27;20170;-71
2021/12/12 04:55:30;;;;;;;46.13;25.95;;;;;;;8.14;100.00;101737.88;5146285;27;20059;-71
2021/12/12 04:58:13;;;;;;;39.22;25.15;;;;;;;8.01;100.00;101736.28;5041409;28;20413;-71
2021/12/12 05:00:55;;;;;;;42.35;25.65;;;;;;;8.13;100.00;101733.50;5144992;27;20062;-70
2021/12/12 05:03:30;;;;;;;45.50;25.25;;;;;;;8.01;100.00;101737.09;5147411;27;20027;-70
2021/12/12 05:06:02;;;;;;;48.63;26.67;;;;;;;8.20;100.00;101743.19;5145406;27;20014;-70
2021/12/12 05:08:33;;;;;;;53.35;28.10;;;;;;;8.16;100.00;101742.00;5147572;27;20018;-71
2021/12/12 05:11:08;;;;;;;53.28;28.60;;;;;;;8.24;100.00;101744.34;5125524;27;20079;-72
2021/12/12 05:13:50;;;;;;;54.80;27.80;;;;;;;8.16;100.00;101750.22;5128910;27;20044;-71
2021/12/12 05:16:25;;;;;;;51.08;28.58;;;;;;;8.23;100.00;101753.66;5142907;27;20038;-72
2021/12/12 05:18:55;;;;;;;56.38;29.17;;;;;;;8.33;100.00;101753.00;5127529;27;20023;-71
2021/12/12 05:21:27;;;;;;;52.00;29.02;;;;;;;8.23;100.00;101750.06;5146047;27;20061;-71
2021/12/12 05:23:59;;;;;;;54.08;28.80;;;;;;;8.31;100.00;101755.13;5143474;27;20019;-71
2021/12/12 05:26:40;;;;;;;64.22;30.13;;;;;;;8.41;100.00;101747.16;5144182;27;20118;-72
2021/12/12 05:29:13;;;;;;;55.13;29.98;;;;;;;8.21;100.00;101750.31;5145677;27;20656;-71
2021/12/12 05:31:45;;;;;;;69.05;30.80;;;;;;;8.33;100.00;101758.47;5143172;27;20453;-72
2021/12/12 05:34:11;;;;;;;59.30;30.10;;;;;;;8.31;100.00;101746.94;5106626;27;20026;-70
2021/12/12 05:36:37;;;;;;;60.75;31.10;;;;;;;8.36;100.00;101752.53;5123918;27;20035;-70
2021/12/12 05:39:04;;;;;;;61.33;29.38;;;;;;;8.33;100.00;101765.81;5112780;27;20037;-70
2021/12/12 05:41:30;;;;;;;57.38;31.10;;;;;;;8.39;100.00;101760.22;5124995;27;20030;-70
2021/12/12 05:43:57;;;;;;;60.17;31.83;;;;;;;8.49;100.00;101761.50;5125827;27;20172;-70
2021/12/12 05:46:24;;;;;;;59.15;29.88;;;;;;;8.41;100.00;101755.34;5141828;27;20026;-70
2021/12/12 05:48:51;;;;;;;65.90;30.95;;;;;;;8.43;100.00;101764.16;5125862;27;20027;-70
2021/12/12 05:51:18;;;;;;;70.38;31.48;;;;;;;8.37;100.00;101765.09;5127089;27;20054;-70
2021/12/12 05:53:44;;;;;;;64.32;31.60;;;;;;;8.44;100.00;101767.72;5127132;27;20042;-70
2021/12/12 05:56:10;;;;;;;67.88;31.08;;;;;;;8.40;100.00;101763.78;5122205;27;20031;-70
2021/12/12 05:58:36;;;;;;;70.88;32.90;;;;;;;8.38;100.00;101774.97;5111756;27;20105;-71
2021/12/12 06:01:09;;;;;;;72.35;32.28;;;;;;;8.59;100.00;101770.72;5122885;27;20042;-71
2021/12/12 06:03:37;;;;;;;83.53;35.05;;;;;;;8.67;100.00;101766.75;5145248;27;20388;-71
2021/12/12 06:06:06;;;;;;;67.18;33.53;;;;;;;8.67;100.00;101771.41;5144803;27;20035;-70
2021/12/12 06:08:32;;;;;;;75.55;33.20;;;;;;;8.63;100.00;101776.53;5146188;27;20477;-69
2021/12/12 06:10:59;;;;;;;72.22;33.53;;;;;;;8.56;100.00;101778.56;5121615;27;20167;-70
2021/12/12 06:13:25;;;;;;;76.15;32.55;;;;;;;8.80;100.00;101788.31;5126767;27;20416;-70
2021/12/12 06:15:54;;;;;;;87.15;33.80;;;;;;;8.94;100.00;101785.28;5141631;27;20182;-71
2021/12/12 06:18:26;;;;;;;80.22;34.05;;;;;;;8.72;100.00;101788.72;5104283;27;20046;-70
2021/12/12 06:20:53;;;;;;;80.13;33.20;;;;;;;8.80;100.00;101779.28;5103932;27;20019;-70
2021/12/12 06:23:20;;;;;;;82.20;34.78;;;;;;;8.81;100.00;101779.03;5089593;27;20034;-71
2021/12/12 06:25:47;;;;;;;64.07;31.00;;;;;;;8.98;100.00;101789.97;5102576;27;20330;-71
2021/12/12 06:28:17;;;;;;;101.00;33.75;;;;;;;8.97;100.00;101785.59;5105649;27;20337;-71
2021/12/12 06:30:45;;;;;;;67.45;32.08;;;;;;;9.02;100.00;101782.13;5120713;27;20023;-71
2021/12/12 06:33:12;;;;;;;79.95;31.88;;;;;;;9.01;100.00;101789.47;5087499;27;20035;-70
2021/12/12 06:35:38;;;;;;;78.78;32.10;;;;;;;8.87;100.00;101790.91;5105679;27;20122;-70
2021/12/12 06:38:06;;;;;;;79.90;34.20;;;;;;;8.93;100.00;101791.81;5104975;27;20223;-71
2021/12/12 06:40:32;;;;;;;69.30;31.40;;;;;;;9.16;100.00;101790.81;5121813;27;20025;-70
2021/12/12 06:43:04;;;;;;;76.00;30.33;;;;;;;9.16;100.00;101782.59;5105655;27;20046;-70
2021/12/12 06:45:30;;;;;;;68.78;30.15;;;;;;;9.18;100.00;101792.22;5123593;27;20019;-70
2021/12/12 06:47:56;;;;;;;87.25;32.13;;;;;;;9.09;100.00;101788.25;5086543;27;20092;-69
2021/12/12 06:50:24;;;;;;;69.40;29.20;;;;;;;9.18;100.00;101803.19;5106889;27;20134;-70
2021/12/12 06:52:53;;;;;;;67.10;29.48;;;;;;;9.20;100.00;101795.53;5124535;27;20110;-71
2021/12/12 06:55:19;;;;;;;63.20;29.67;;;;;;;9.25;100.00;101802.16;5103137;27;20038;-70
2021/12/12 06:57:45;;;;;;;63.40;29.75;;;;;;;9.19;100.00;101809.47;5106482;27;20031;-72
2021/12/12 07:00:20;;;;;;;74.95;30.10;;;;;;;9.43;100.00;101801.06;5121060;27;20061;-70
2021/12/12 07:02:46;;;;;;;72.70;32.05;;;;;;;9.24;100.00;101806.00;5104822;27;20023;-71
2021/12/12 07:05:19;;;;;;;75.35;32.40;;;;;;;9.16;100.00;101805.31;5122896;27;20595;-71
2021/12/12 07:07:46;;;;;;;87.22;34.30;;;;;;;9.15;100.00;101808.28;5108645;27;20031;-71
2021/12/12 07:10:14;;;;;;;86.00;31.95;;;;;;;9.20;100.00;101814.69;5121020;27;20191;-71
2021/12/12 07:12:40;;;;;;;82.53;32.85;;;;;;;9.30;100.00;101811.28;5107278;27;20088;-72
2021/12/12 07:15:11;;;;;;;92.93;34.03;;;;;;;9.30;100.00;101824.16;5109512;27;20027;-72
2021/12/12 07:17:38;;;;;;;78.88;31.27;;;;;;;9.34;100.00;101820.66;5107743;27;20019;-72
2021/12/12 07:20:06;;;;;;;92.85;32.65;;;;;;;9.35;100.00;101825.06;5123856;27;20057;-72
2021/12/12 07:22:32;;;;;;;75.18;30.20;;;;;;;9.49;100.00;101817.31;5123449;27;20181;-72
2021/12/12 07:25:00;;;;;;;68.40;29.02;;;;;;;9.38;100.00;101826.47;5119887;27;20532;-72
2021/12/12 07:27:26;;;;;;;70.68;30.17;;;;;;;9.61;100.00;101830.91;5123941;27;20034;-72
2021/12/12 07:29:56;;;;;;;64.20;28.15;;;;;;;9.28;100.00;101818.94;5104435;27;20031;-71
2021/12/12 07:32:22;;;;;;;60.17;28.48;;;;;;;9.52;100.00;101826.94;5102853;27;20031;-71
2021/12/12 07:34:47;;;;;;;61.55;26.80;;;;;;;9.44;100.00;101822.72;5124715;27;20388;-70
2021/12/12 07:37:13;;;;;;;58.42;24.88;;;;;;;9.52;100.00;101821.47;5105320;27;20076;-70
2021/12/12 07:39:42;;;;;;;39.80;22.50;;;;;;;9.38;100.00;101837.41;5123523;27;20042;-72
2021/12/12 07:42:09;;;;;;;44.53;22.95;;;;;;;9.47;100.00;101827.69;5071099;27;20125;-71
2021/12/12 07:44:38;;;;;;;51.38;23.45;;;;;;;9.56;100.00;101828.94;5124207;27;20023;-71
2021/12/12 07:47:05;;;;;;;47.45;24.08;;;;;;;9.42;100.00;101844.03;5103010;27;20112;-71
2021/12/12 07:49:37;;;;;;;54.00;25.52;;;;;;;9.54;100.00;101836.56;5127490;27;20055;-72
2021/12/12 07:52:06;;;;;;;46.80;24.20;;;;;;;9.56;100.00;101836.31;5124423;27;20275;-72
2021/12/12 07:54:33;;;;;;;54.42;25.88;;;;;;;9.36;100.00;101843.13;5127614;27;20485;-72
2021/12/12 07:56:59;;;;;;;52.40;26.17;;;;;;;9.57;100.00;101844.28;5104724;27;20481;-70
2021/12/12 07:59:28;;;;;;;59.83;26.50;;;;;;;9.65;100.00;101851.22;5107033;27;20043;-71
2021/12/12 08:01:54;;;;;;;65.00;26.92;;;;;;;9.66;100.00;101852.06;5106911;27;20394;-70
2021/12/12 08:04:25;;;;;;;61.35;27.38;;;;;;;9.59;100.00;101852.22;5106031;27;20102;-71
2021/12/12 08:06:51;;;;;;;68.82;27.38;;;;;;;9.60;100.00;101858.53;5125716;27;20121;-71
2021/12/12 08:09:18;;;;;;;65.50;28.20;;;;;;;9.57;100.00;101857.13;5105647;27;20034;-71
2021/12/12 08:11:45;;;;;;;67.20;28.38;;;;;;;9.63;100.00;101866.25;5104615;27;20070;-70
2021/12/12 08:14:17;;;;;;;69.10;28.35;;;;;;;9.59;100.00;101870.56;5089433;27;20456;-72
2021/12/12 08:16:44;;;;;;;63.75;29.67;;;;;;;9.67;100.00;101883.84;5103633;27;20358;-70
2021/12/12 08:19:10;;;;;;;76.13;29.77;;;;;;;9.66;100.00;101883.00;5125894;27;20490;-71
2021/12/12 08:21:38;;;;;;;64.78;28.73;;;;;;;9.63;100.00;101886.25;5109013;27;20023;-70
2021/12/12 08:24:08;;;;;;;83.82;30.50;;;;;;;9.79;100.00;101889.22;5107139;27;20052;-70
2021/12/12 08:26:36;;;;;;;64.72;27.05;;;;;;;9.74;100.00;101889.97;5123728;27;20034;-72
2021/12/12 08:29:06;;;;;;;59.13;25.17;;;;;;;9.69;100.00;101892.63;5108183;27;20058;-72
2021/12/12 08:31:32;;;;;;;49.42;24.98;;;;;;;9.64;100.00;101887.06;5103228;27;20122;-71
2021/12/12 08:33:57;;;;;;;50.42;25.48;;;;;;;9.94;100.00;101893.00;5126830;27;20426;-71
2021/12/12 08:36:23;;;;;;;51.28;23.55;;;;;;;9.82;100.00;101900.50;5088957;27;20193;-70
2021/12/12 08:38:49;;;;;;;54.70;24.77;;;;;;;9.98;100.00;101897.97;5128620;27;20401;-71
2021/12/12 08:41:15;;;;;;;43.03;21.42;;;;;;;10.03;100.00;101896.13;5103494;27;20552;-71
2021/12/12 08:43:43;;;;;;;43.80;20.60;;;;;;;10.15;100.00;101897.94;5074233;27;20109;-71
2021/12/12 08:46:11;;;;;;;58.35;21.65;;;;;;;10.18;100.00;101909.22;5100743;27;20145;-70
2021/12/12 08:48:44;;;;;;;40.03;19.13;;;;;;;10.01;100.00;101902.97;5125683;27;20038;-71
2021/12/12 08:51:14;;;;;;;37.78;19.10;;;;;;;10.11;100.00;101908.56;5122836;27;20091;-71
2021/12/12 08:53:46;;;;;;;38.92;19.75;;;;;;;10.19;100.00;101910.88;5126813;27;20062;-71
2021/12/12 08:56:19;;;;;;;36.65;18.63;;;;;;;10.30;100.00;101922.81;5101914;27;20023;-71
2021/12/12 08:58:47;;;;;;;30.33;15.73;;;;;;;10.18;100.00;101925.66;5107867;27;20048;-71
2021/12/12 09:01:17;;;;;;;26.83;15.73;;;;;;;10.15;100.00;101920.72;5101493;27;20039;-71
2021/12/12 09:03:51;;;;;;;29.02;14.85;;;;;;;10.11;100.00;101914.06;5126176;27;20031;-71
2021/12/12 09:06:19;;;;;;;26.70;13.93;;;;;;;10.28;100.00;101928.56;5105600;27;20058;-71
2021/12/12 09:08:55;;;;;;;24.23;13.43;;;;;;;10.41;100.00;101918.31;5126284;27;20031;-71
2021/12/12 09:11:33;;;;;;;18.60;12.45;;;;;;;10.28;100.00;101934.03;5102777;27;20027;-71
2021/12/12 09:14:03;;;;;;;24.75;13.00;;;;;;;10.41;100.00;101932.03;5133285;27;20077;-70
2021/12/12 09:16:35;;;;;;;18.60;12.13;;;;;;;10.36;100.00;101937.44;5119017;27;20026;-71
2021/12/12 09:19:09;;;;;;;21.17;11.90;;;;;;;10.58;100.00;101938.28;5126697;27;20395;-72
2021/12/12 09:22:01;;;;;;;17.33;10.73;;;;;;;10.47;100.00;101944.72;5123723;27;20074;-71
2021/12/12 09:24:53;;;;;;;19.58;10.73;;;;;;;10.57;100.00;101953.06;5137356;27;20023;-71
2021/12/12 09:27:59;;;;;;;16.33;11.00;;;;;;;10.47;100.00;101948.28;5122806;27;20114;-71
2021/12/12 09:30:26;;;;;;;13.07;9.00;;;;;;;10.62;100.00;101947.66;5051586;27;20061;-72
2021/12/12 09:32:54;;;;;;;13.90;9.68;;;;;;;10.65;100.00;101951.81;5103514;27;20141;-72
2021/12/12 09:35:40;;;;;;;13.55;9.43;;;;;;;10.65;100.00;101947.13;5121307;27;20045;-72
2021/12/12 09:38:28;;;;;;;16.35;9.75;;;;;;;10.66;100.00;101957.03;5122892;27;20015;-71
2021/12/12 09:41:29;;;;;;;10.60;8.25;;;;;;;10.60;100.00;101944.34;5131166;27;20046;-72
2021/12/12 09:44:19;;;;;;;10.52;7.65;;;;;;;10.59;100.00;101959.16;5060166;28;20028;-71
2021/12/12 09:47:28;;;;;;;15.48;8.63;;;;;;;10.79;100.00;101957.72;5117690;27;20038;-72
2021/12/12 09:53:45;;;;;;;9.85;7.68;;;;;;;10.74;100.00;101964.00;5127598;27;20393;-71
2021/12/12 09:56:48;;;;;;;17.13;9.75;;;;;;;10.97;100.00;101965.63;5141227;27;20806;-72
2021/12/12 09:59:32;;;;;;;11.73;8.00;;;;;;;10.79;100.00;101963.19;5124236;27;20133;-72
2021/12/12 10:02:24;;;;;;;9.65;7.68;;;;;;;10.96;100.00;101952.97;5139658;27;20050;-72
2021/12/12 10:05:05;;;;;;;9.82;7.93;;;;;;;10.91;100.00;101966.66;5130452;27;20113;-71
2021/12/12 10:07:43;;;;;;;12.10;7.50;;;;;;;11.08;100.00;101960.25;5124689;27;20034;-73
2021/12/12 10:10:37;;;;;;;11.85;9.30;;;;;;;10.84;100.00;101968.78;5141643;27;20019;-72
2021/12/12 10:13:13;;;;;;;12.30;8.40;;;;;;;10.94;100.00;101959.84;5142220;27;20548;-72
2021/12/12 10:15:47;;;;;;;14.82;9.13;;;;;;;10.87;100.00;101959.19;5122437;27;20047;-72
2021/12/12 10:18:37;;;;;;;13.27;9.68;;;;;;;10.77;100.00;101958.00;5123748;27;20014;-73
2021/12/12 10:21:11;;;;;;;12.98;9.48;;;;;;;11.15;100.00;101960.84;5122943;27;20023;-73
2021/12/12 10:24:15;;;;;;;12.93;9.20;;;;;;;11.25;100.00;101963.72;5122646;27;20044;-73
2021/12/12 10:26:45;;;;;;;10.93;8.52;;;;;;;11.18;100.00;101966.69;5101240;27;20186;-72
2021/12/12 10:29:19;;;;;;;14.82;8.88;;;;;;;11.08;100.00;101966.56;5142382;27;20458;-72
2021/12/12 10:31:53;;;;;;;14.95;9.27;;;;;;;11.05;100.00;101980.78;5140604;27;20185;-71
2021/12/12 10:34:36;;;;;;;14.95;8.98;;;;;;;11.07;100.00;101970.41;5124914;27;20046;-73
2021/12/12 10:37:22;;;;;;;12.00;8.38;;;;;;;11.09;100.00;101961.91;5125178;27;20237;-73
2021/12/12 10:40:03;;;;;;;12.95;8.20;;;;;;;11.13;100.00;101960.28;5129301;27;20469;-72
2021/12/12 10:42:36;;;;;;;13.70;8.55;;;;;;;11.05;100.00;101961.56;5145044;27;20041;-71
2021/12/12 10:45:11;;;;;;;10.73;8.30;;;;;;;11.25;100.00;101960.97;5123248;27;20337;-71
2021/12/12 10:47:49;;;;;;;13.18;8.82;;;;;;;11.04;100.00;101960.75;5141032;27;20027;-72
2021/12/12 10:50:44;;;;;;;12.77;8.55;;;;;;;11.00;100.00;101967.00;5143516;27;20576;-72
2021/12/12 10:53:27;;;;;;;14.07;7.93;;;;;;;11.01;100.00;101968.69;5126139;27;20037;-73
2021/12/12 10:56:05;;;;;;;14.38;8.75;;;;;;;11.37;100.00;101966.31;5141064;27;20037;-73
2021/12/12 10:58:51;;;;;;;13.70;8.60;;;;;;;11.22;100.00;101972.47;5144018;27;20026;-72
2021/12/12 11:01:23;;;;;;;14.00;8.85;;;;;;;11.21;100.00;101968.91;5122365;27;20033;-75
2021/12/12 11:04:01;;;;;;;17.65;8.88;;;;;;;11.38;100.00;101981.72;5126322;27;20026;-72
2021/12/12 11:06:34;;;;;;;16.02;7.82;;;;;;;11.22;100.00;101975.22;5123592;27;20397;-71
2021/12/12 11:09:29;;;;;;;11.43;5.90;;;;;;;11.36;100.00;101978.38;5144146;27;20033;-72
2021/12/12 11:12:18;;;;;;;11.30;5.80;;;;;;;11.44;100.00;101982.56;5138464;27;20079;-72
2021/12/12 11:14:57;;;;;;;13.23;5.90;;;;;;;11.60;100.00;101989.88;5126212;27;20026;-72
2021/12/12 11:17:31;;;;;;;12.65;6.03;;;;;;;11.32;100.00;101983.56;5145559;27;20328;-73
2021/12/12 11:20:35;;;;;;;11.82;5.72;;;;;;;11.53;100.00;101981.84;5144410;27;20022;-73
2021/12/12 11:23:20;;;;;;;12.60;5.22;;;;;;;11.32;100.00;101980.00;5134399;27;20023;-73
2021/12/12 11:25:51;;;;;;;12.40;5.60;;;;;;;11.25;100.00;101976.59;5104552;27;20050;-72
2021/12/12 11:28:46;;;;;;;19.25;6.85;;;;;;;11.43;100.00;101989.13;5128690;27;20027;-72
2021/12/12 11:31:16;;;;;;;25.77;7.05;;;;;;;11.46;100.00;101991.38;5105628;27;20095;-72
2021/12/12 11:33:47;;;;;;;20.00;7.00;;;;;;;11.31;100.00;101981.06;5126685;27;20517;-72
2021/12/12 11:36:18;;;;;;;21.77;6.68;;;;;;;11.47;100.00;101982.06;5126283;27;20113;-71
2021/12/12 11:38:47;;;;;;;16.05;6.53;;;;;;;11.46;100.00;101991.38;5127179;27;20215;-72
2021/12/12 11:41:23;;;;;;;18.08;7.10;;;;;;;11.38;100.00;102000.94;5106634;27;20019;-72
2021/12/12 11:43:49;;;;;;;25.48;6.90;;;;;;;11.55;100.00;102001.63;5107224;27;20042;-73
2021/12/12 11:46:28;;;;;;;25.30;7.70;;;;;;;11.37;100.00;101997.34;5124024;27;20027;-73
2021/12/12 11:49:02;;;;;;;24.85;7.43;;;;;;;11.51;100.00;101994.16;5111989;27;20035;-72
2021/12/12 11:51:33;;;;;;;24.23;7.18;;;;;;;11.56;100.00;101996.97;5137903;27;20046;-71
2021/12/12 11:54:16;;;;;;;23.60;7.30;;;;;;;11.51;100.00;101995.00;5149444;27;20033;-71
2021/12/12 11:56:45;;;;;;;;;;;;;;;11.39;100.00;102002.56;5147157;27;20501;-72